Plattsmouth, Nebraska
Current Conditions -  °F | °C
As of 10:35 AM on Saturday 20 Dec 2014 (Local Time) from KPMV Reporting Station
Haze Haze  
Wind Chill: 32°   Ceiling: 400
Heat Index: 32°   Visibility: 2.5mi
Dew Point: 31°   Wind: 3mph
Humidity: 96%   Direction: 180°S
Pressure: 30.13"   Gusts: NA
Location:  41.01°N, 95.88°W
Report Text: KPMV 201635Z AUTO 18003KT 2 1/2SM BR OVC004 00/M01 A3013 RMK AO2 T00001006
Loading
Personal Weather Stations






























Interactive Weather Map New forecast layout! Learn more

10-Day Weather Forecast

Advertisements
Track Severe Weather on mobile